S73 Hermelin — DRCG — position and weather

sailwx.info

Track history (hours):
 
Tides and Currents Weather Stations Pressure Air Temp Water Temp Dewpoint Dewpoint Depression Visibility Wind Speed Wind Dir Waves Ship Positions

S73 Hermelin

Last reported at 2016-Jun-16 16:26 UTC. Time now 2016-Jun-25 16:04 UTC.
Position N 54°21' E 010°09'.
Warning: this ship's position is 8 days out of date.

Length 58 m.

Type: Military. MMSI: 211210610.

Date/timePositionNaut miles runAvg speedWind from/ knotsBaromVisibWave heightAir tempDewpointWater temp
2016-Jun-16 16:26N 54°21' E 010°09'9 9.9
2016-Jun-16 15:33N 54°29' E 010°16'2525.1
2016-Jun-16 14:34N 54°35' E 010°58'2323.4
2016-Jun-16 13:34N 54°24' E 011°33'1010.3
2016-Jun-16 12:34N 54°18' E 011°48'1110.9
2016-Jun-16 11:33N 54°13' E 012°04'3 0.2
2016-Jun-15 17:25N 54°11' E 012°08'8 8.9
2016-Jun-15 16:33N 54°18' E 012°08'7022.7
2016-Jun-15 13:28N 54°59' E 013°45'2123.2
2016-Jun-15 12:33N 55°13' E 014°14'2222.4
2016-Jun-15 11:33N 55°29' E 014°40'2423.6
2016-Jun-15 10:33N 55°40' E 015°17'5226.1
2016-Jun-15 08:33N 55°50' E 016°48'125 4.5
2016-Jun-14 04:34N 57°08' E 019°44'1312.9
2016-Jun-14 03:33N 57°18' E 019°30'1913.3
2016-Jun-14 02:07N 57°37' E 019°30'6 7.9
2016-Jun-14 01:21N 57°35' E 019°19'90 1.9
2016-Jun-12 02:34N 58°37' E 017°14'5 0.4
2016-Jun-11 14:12N 58°40' E 017°07'0 0.0
2016-Jun-11 13:24N 58°40' E 017°07'0 0.0
2016-Jun-11 11:09N 58°40' E 017°07'3 2.9
2016-Jun-11 10:07N 58°41' E 017°12'1 0.5
2016-Jun-11 09:03N 58°42' E 017°12'0 0.4
2016-Jun-11 08:29N 58°41' E 017°12'0 0.4
2016-Jun-11 07:32N 58°42' E 017°12'1 0.5
2016-Jun-11 06:20N 58°42' E 017°13'1 0.2
2016-Jun-11 01:31N 58°42' E 017°11'1 0.1
2016-Jun-10 21:31N 58°42' E 017°12'29 5.6
2016-Jun-10 16:14N 58°26' E 017°60'6 8.6
2016-Jun-10 15:33N 58°31' E 018°06'1111.1
2016-Jun-10 14:34N 58°39' E 018°20'9 8.6
2016-Jun-10 13:34N 58°43' E 018°34'42 9.8
2016-Jun-10 09:17N 58°37' E 017°15'3 0.2
2016-Jun-09 20:34N 58°37' E 017°21'2221.7
2016-Jun-09 19:34N 58°32' E 018°01'1313.5
2016-Jun-09 18:34N 58°29' E 018°26'9 8.8
2016-Jun-09 17:34N 58°38' E 018°24'3 3.2
2016-Jun-09 16:34N 58°37' E 018°18'10 9.8
2016-Jun-09 15:34N 58°46' E 018°26'1 1.0
2016-Jun-09 14:30N 58°47' E 018°25'9 9.6
2016-Jun-09 13:34N 58°38' E 018°22'9 9.5
2016-Jun-09 12:34N 58°46' E 018°32'1212.2
2016-Jun-09 11:34N 58°48' E 018°55'33 1.1
2016-Jun-08 04:34N 59°10' E 019°44'10 9.6
2016-Jun-08 03:34N 59°03' E 019°31'69 5.8
2016-Jun-07 15:31N 57°54' E 019°11'18510.8
2016-Jun-06 22:23N 55°35' E 015°28'1822.0
2016-Jun-06 21:33N 55°28' E 014°58'2121.5
2016-Jun-06 20:34N 55°15' E 014°29'2121.1
2016-Jun-06 19:33N 55°01' E 014°01'4321.5
2016-Jun-06 17:34N 54°46' E 012°50'2120.5
2016-Jun-06 16:33N 54°35' E 012°20'  
Track history (hours):
 
Tides and Currents Weather Stations Pressure Air Temp Water Temp Dewpoint Dewpoint Depression Visibility Wind Speed Wind Dir Waves Ship Positions

S73 Hermelin

Last reported at 2016-Jun-16 16:26 UTC. Time now 2016-Jun-25 16:04 UTC.
Position N 54°21' E 010°09'.
Warning: this ship's position is 8 days out of date.

Length 58 m.

Type: Military. MMSI: 211210610.

Date/timePositionNaut miles runAvg speedWind from/ knotsBaromVisibWave heightAir tempDewpointWater temp
2016-Jun-16 16:26N 54°21' E 010°09'9 9.9
2016-Jun-16 15:33N 54°29' E 010°16'2525.1
2016-Jun-16 14:34N 54°35' E 010°58'2323.4
2016-Jun-16 13:34N 54°24' E 011°33'1010.3
2016-Jun-16 12:34N 54°18' E 011°48'1110.9
2016-Jun-16 11:33N 54°13' E 012°04'3 0.2
2016-Jun-15 17:25N 54°11' E 012°08'8 8.9
2016-Jun-15 16:33N 54°18' E 012°08'7022.7
2016-Jun-15 13:28N 54°59' E 013°45'2123.2
2016-Jun-15 12:33N 55°13' E 014°14'2222.4
2016-Jun-15 11:33N 55°29' E 014°40'2423.6
2016-Jun-15 10:33N 55°40' E 015°17'5226.1
2016-Jun-15 08:33N 55°50' E 016°48'125 4.5
2016-Jun-14 04:34N 57°08' E 019°44'1312.9
2016-Jun-14 03:33N 57°18' E 019°30'1913.3
2016-Jun-14 02:07N 57°37' E 019°30'6 7.9
2016-Jun-14 01:21N 57°35' E 019°19'90 1.9
2016-Jun-12 02:34N 58°37' E 017°14'5 0.4
2016-Jun-11 14:12N 58°40' E 017°07'0 0.0
2016-Jun-11 13:24N 58°40' E 017°07'0 0.0
2016-Jun-11 11:09N 58°40' E 017°07'3 2.9
2016-Jun-11 10:07N 58°41' E 017°12'1 0.5
2016-Jun-11 09:03N 58°42' E 017°12'0 0.4
2016-Jun-11 08:29N 58°41' E 017°12'0 0.4
2016-Jun-11 07:32N 58°42' E 017°12'1 0.5
2016-Jun-11 06:20N 58°42' E 017°13'1 0.2
2016-Jun-11 01:31N 58°42' E 017°11'1 0.1
2016-Jun-10 21:31N 58°42' E 017°12'29 5.6
2016-Jun-10 16:14N 58°26' E 017°60'6 8.6
2016-Jun-10 15:33N 58°31' E 018°06'1111.1
2016-Jun-10 14:34N 58°39' E 018°20'9 8.6
2016-Jun-10 13:34N 58°43' E 018°34'42 9.8
2016-Jun-10 09:17N 58°37' E 017°15'3 0.2
2016-Jun-09 20:34N 58°37' E 017°21'2221.7
2016-Jun-09 19:34N 58°32' E 018°01'1313.5
2016-Jun-09 18:34N 58°29' E 018°26'9 8.8
2016-Jun-09 17:34N 58°38' E 018°24'3 3.2
2016-Jun-09 16:34N 58°37' E 018°18'10 9.8
2016-Jun-09 15:34N 58°46' E 018°26'1 1.0
2016-Jun-09 14:30N 58°47' E 018°25'9 9.6
2016-Jun-09 13:34N 58°38' E 018°22'9 9.5
2016-Jun-09 12:34N 58°46' E 018°32'1212.2
2016-Jun-09 11:34N 58°48' E 018°55'33 1.1
2016-Jun-08 04:34N 59°10' E 019°44'10 9.6
2016-Jun-08 03:34N 59°03' E 019°31'69 5.8
2016-Jun-07 15:31N 57°54' E 019°11'18510.8
2016-Jun-06 22:23N 55°35' E 015°28'1822.0
2016-Jun-06 21:33N 55°28' E 014°58'2121.5
2016-Jun-06 20:34N 55°15' E 014°29'2121.1
2016-Jun-06 19:33N 55°01' E 014°01'4321.5
2016-Jun-06 17:34N 54°46' E 012°50'2120.5
2016-Jun-06 16:33N 54°35' E 012°20'  

Dump ship's entire track history